sensor_id;sensor_type;location;lat;lon;timestamp;temperature;humidity
15617;DHT22;7908;51.688;7.130;2023-06-22T00:01:33;20.30;99.90
15617;DHT22;7908;51.688;7.130;2023-06-22T00:04:04;20.30;99.90
15617;DHT22;7908;51.688;7.130;2023-06-22T00:06:33;20.30;99.90
15617;DHT22;7908;51.688;7.130;2023-06-22T00:09:04;20.30;99.90
15617;DHT22;7908;51.688;7.130;2023-06-22T00:11:34;20.30;99.90
15617;DHT22;7908;51.688;7.130;2023-06-22T00:14:03;20.30;99.90
15617;DHT22;7908;51.688;7.130;2023-06-22T00:16:34;20.30;99.90
15617;DHT22;7908;51.688;7.130;2023-06-22T00:19:04;20.30;99.90
15617;DHT22;7908;51.688;7.130;2023-06-22T00:21:33;20.30;99.90
15617;DHT22;7908;51.688;7.130;2023-06-22T00:24:04;20.30;99.90
15617;DHT22;7908;51.688;7.130;2023-06-22T00:26:34;20.20;99.90
15617;DHT22;7908;51.688;7.130;2023-06-22T00:29:06;20.30;99.90
15617;DHT22;7908;51.688;7.130;2023-06-22T00:31:35;20.20;99.90
15617;DHT22;7908;51.688;7.130;2023-06-22T00:34:04;20.20;99.90
15617;DHT22;7908;51.688;7.130;2023-06-22T00:36:36;20.20;99.90
15617;DHT22;7908;51.688;7.130;2023-06-22T00:39:10;20.20;99.90
15617;DHT22;7908;51.688;7.130;2023-06-22T00:41:41;20.20;99.90
15617;DHT22;7908;51.688;7.130;2023-06-22T00:44:10;20.20;99.90
15617;DHT22;7908;51.688;7.130;2023-06-22T00:46:43;20.20;99.90
15617;DHT22;7908;51.688;7.130;2023-06-22T00:49:13;20.10;99.90
15617;DHT22;7908;51.688;7.130;2023-06-22T00:51:42;20.10;99.90
15617;DHT22;7908;51.688;7.130;2023-06-22T00:54:14;20.00;99.90
15617;DHT22;7908;51.688;7.130;2023-06-22T00:56:44;20.10;99.90
15617;DHT22;7908;51.688;7.130;2023-06-22T00:59:16;20.00;99.90
15617;DHT22;7908;51.688;7.130;2023-06-22T01:01:46;19.90;99.90
15617;DHT22;7908;51.688;7.130;2023-06-22T01:04:15;19.90;99.90
15617;DHT22;7908;51.688;7.130;2023-06-22T01:06:52;19.90;99.90
15617;DHT22;7908;51.688;7.130;2023-06-22T01:09:28;19.90;99.90
15617;DHT22;7908;51.688;7.130;2023-06-22T01:12:04;19.80;99.90
15617;DHT22;7908;51.688;7.130;2023-06-22T01:14:37;19.80;99.90
15617;DHT22;7908;51.688;7.130;2023-06-22T01:17:09;19.80;99.90
15617;DHT22;7908;51.688;7.130;2023-06-22T01:19:46;19.80;99.90
15617;DHT22;7908;51.688;7.130;2023-06-22T01:22:17;19.80;99.90
15617;DHT22;7908;51.688;7.130;2023-06-22T01:24:57;19.70;99.90
15617;DHT22;7908;51.688;7.130;2023-06-22T01:27:39;19.70;99.90
15617;DHT22;7908;51.688;7.130;2023-06-22T01:30:16;19.70;99.90
15617;DHT22;7908;51.688;7.130;2023-06-22T01:32:46;19.70;99.90
15617;DHT22;7908;51.688;7.130;2023-06-22T01:35:15;19.60;99.90
15617;DHT22;7908;51.688;7.130;2023-06-22T01:37:45;19.60;99.90
15617;DHT22;7908;51.688;7.130;2023-06-22T01:40:15;19.60;99.90
15617;DHT22;7908;51.688;7.130;2023-06-22T01:42:44;19.50;99.90
15617;DHT22;7908;51.688;7.130;2023-06-22T01:45:24;19.50;99.90
15617;DHT22;7908;51.688;7.130;2023-06-22T01:47:55;19.60;99.90
15617;DHT22;7908;51.688;7.130;2023-06-22T01:50:24;19.50;99.90
15617;DHT22;7908;51.688;7.130;2023-06-22T01:52:54;19.50;99.90
15617;DHT22;7908;51.688;7.130;2023-06-22T01:55:24;19.50;99.90
15617;DHT22;7908;51.688;7.130;2023-06-22T01:57:53;19.50;99.90
15617;DHT22;7908;51.688;7.130;2023-06-22T02:00:25;19.30;99.90
15617;DHT22;7908;51.688;7.130;2023-06-22T02:03:01;19.30;99.90
15617;DHT22;7908;51.688;7.130;2023-06-22T02:05:38;19.20;99.90
15617;DHT22;7908;51.688;7.130;2023-06-22T02:08:11;19.10;99.90
15617;DHT22;7908;51.688;7.130;2023-06-22T02:10:44;19.10;99.90
15617;DHT22;7908;51.688;7.130;2023-06-22T02:13:15;19.20;99.90
15617;DHT22;7908;51.688;7.130;2023-06-22T02:15:46;19.20;99.90
15617;DHT22;7908;51.688;7.130;2023-06-22T02:18:16;19.30;99.90
15617;DHT22;7908;51.688;7.130;2023-06-22T02:20:45;19.20;99.90
15617;DHT22;7908;51.688;7.130;2023-06-22T02:23:14;19.30;99.90
15617;DHT22;7908;51.688;7.130;2023-06-22T02:25:43;19.30;99.90
15617;DHT22;7908;51.688;7.130;2023-06-22T02:28:12;19.30;99.90
15617;DHT22;7908;51.688;7.130;2023-06-22T02:30:41;19.30;99.90
15617;DHT22;7908;51.688;7.130;2023-06-22T02:33:12;19.20;99.90
15617;DHT22;7908;51.688;7.130;2023-06-22T02:35:41;19.10;99.90
15617;DHT22;7908;51.688;7.130;2023-06-22T02:38:13;19.10;99.90
15617;DHT22;7908;51.688;7.130;2023-06-22T02:40:42;19.10;99.90
15617;DHT22;7908;51.688;7.130;2023-06-22T02:43:11;19.10;99.90
15617;DHT22;7908;51.688;7.130;2023-06-22T02:45:40;19.10;99.90
15617;DHT22;7908;51.688;7.130;2023-06-22T02:48:11;19.00;99.90
15617;DHT22;7908;51.688;7.130;2023-06-22T02:50:41;19.10;99.90
15617;DHT22;7908;51.688;7.130;2023-06-22T02:53:09;19.10;99.90
15617;DHT22;7908;51.688;7.130;2023-06-22T02:55:38;19.10;99.90
15617;DHT22;7908;51.688;7.130;2023-06-22T02:58:09;19.00;99.90
15617;DHT22;7908;51.688;7.130;2023-06-22T03:00:38;19.00;99.90
15617;DHT22;7908;51.688;7.130;2023-06-22T03:03:07;19.00;99.90
15617;DHT22;7908;51.688;7.130;2023-06-22T03:05:38;19.00;99.90
15617;DHT22;7908;51.688;7.130;2023-06-22T03:08:08;19.00;99.90
15617;DHT22;7908;51.688;7.130;2023-06-22T03:10:37;19.00;99.90
15617;DHT22;7908;51.688;7.130;2023-06-22T03:13:06;18.90;99.90
15617;DHT22;7908;51.688;7.130;2023-06-22T03:15:36;18.90;99.90
15617;DHT22;7908;51.688;7.130;2023-06-22T03:18:05;18.90;99.90
15617;DHT22;7908;51.688;7.130;2023-06-22T03:20:36;18.80;99.90
15617;DHT22;7908;51.688;7.130;2023-06-22T03:23:05;18.80;99.90
15617;DHT22;7908;51.688;7.130;2023-06-22T03:25:37;18.80;99.90
15617;DHT22;7908;51.688;7.130;2023-06-22T03:28:06;18.80;99.90
15617;DHT22;7908;51.688;7.130;2023-06-22T03:30:37;18.80;99.90
15617;DHT22;7908;51.688;7.130;2023-06-22T03:33:06;18.80;99.90
15617;DHT22;7908;51.688;7.130;2023-06-22T03:35:37;18.80;99.90
15617;DHT22;7908;51.688;7.130;2023-06-22T03:38:06;18.70;99.90
15617;DHT22;7908;51.688;7.130;2023-06-22T03:40:35;18.70;99.90
15617;DHT22;7908;51.688;7.130;2023-06-22T03:43:04;18.70;99.90
15617;DHT22;7908;51.688;7.130;2023-06-22T03:45:34;18.70;99.90
15617;DHT22;7908;51.688;7.130;2023-06-22T03:48:04;18.60;99.90
15617;DHT22;7908;51.688;7.130;2023-06-22T03:50:38;18.60;99.90
15617;DHT22;7908;51.688;7.130;2023-06-22T03:53:07;18.60;99.90
15617;DHT22;7908;51.688;7.130;2023-06-22T03:55:40;18.50;99.90
15617;DHT22;7908;51.688;7.130;2023-06-22T03:58:09;18.40;99.90
15617;DHT22;7908;51.688;7.130;2023-06-22T04:00:39;18.50;99.90
15617;DHT22;7908;51.688;7.130;2023-06-22T04:03:08;18.50;99.90
15617;DHT22;7908;51.688;7.130;2023-06-22T04:05:41;18.50;99.90
15617;DHT22;7908;51.688;7.130;2023-06-22T04:08:10;18.60;99.90
15617;DHT22;7908;51.688;7.130;2023-06-22T04:10:40;18.60;99.90
15617;DHT22;7908;51.688;7.130;2023-06-22T04:13:09;18.60;99.90
15617;DHT22;7908;51.688;7.130;2023-06-22T04:15:38;18.60;99.90
15617;DHT22;7908;51.688;7.130;2023-06-22T04:18:07;18.60;99.90
15617;DHT22;7908;51.688;7.130;2023-06-22T04:20:37;18.70;99.90
15617;DHT22;7908;51.688;7.130;2023-06-22T04:23:07;18.80;99.90
15617;DHT22;7908;51.688;7.130;2023-06-22T04:25:36;18.80;99.90
15617;DHT22;7908;51.688;7.130;2023-06-22T04:28:05;18.90;99.90
15617;DHT22;7908;51.688;7.130;2023-06-22T04:30:40;19.00;99.90
15617;DHT22;7908;51.688;7.130;2023-06-22T04:33:14;18.90;99.90
15617;DHT22;7908;51.688;7.130;2023-06-22T04:35:45;19.00;99.90
15617;DHT22;7908;51.688;7.130;2023-06-22T04:38:15;19.00;99.90
15617;DHT22;7908;51.688;7.130;2023-06-22T04:40:44;19.10;99.90
15617;DHT22;7908;51.688;7.130;2023-06-22T04:43:13;19.20;99.90
15617;DHT22;7908;51.688;7.130;2023-06-22T04:45:44;19.30;99.90
15617;DHT22;7908;51.688;7.130;2023-06-22T04:48:13;19.50;99.90
15617;DHT22;7908;51.688;7.130;2023-06-22T04:50:43;19.70;99.90
15617;DHT22;7908;51.688;7.130;2023-06-22T04:53:12;19.70;99.90
15617;DHT22;7908;51.688;7.130;2023-06-22T04:55:43;19.90;99.90
15617;DHT22;7908;51.688;7.130;2023-06-22T04:58:13;20.10;99.90
15617;DHT22;7908;51.688;7.130;2023-06-22T05:00:42;20.20;99.90
15617;DHT22;7908;51.688;7.130;2023-06-22T05:03:12;20.40;99.90
15617;DHT22;7908;51.688;7.130;2023-06-22T05:05:46;20.60;99.90
15617;DHT22;7908;51.688;7.130;2023-06-22T05:08:16;20.80;99.90
15617;DHT22;7908;51.688;7.130;2023-06-22T05:10:47;20.90;99.90
15617;DHT22;7908;51.688;7.130;2023-06-22T05:13:31;20.90;99.90
15617;DHT22;7908;51.688;7.130;2023-06-22T05:16:03;20.90;99.90
15617;DHT22;7908;51.688;7.130;2023-06-22T05:18:34;20.90;99.90
15617;DHT22;7908;51.688;7.130;2023-06-22T05:21:03;21.00;99.90
15617;DHT22;7908;51.688;7.130;2023-06-22T05:23:34;21.00;99.90
15617;DHT22;7908;51.688;7.130;2023-06-22T05:26:05;21.10;99.90
15617;DHT22;7908;51.688;7.130;2023-06-22T05:32:00;21.10;99.90
15617;DHT22;7908;51.688;7.130;2023-06-22T05:34:29;21.00;99.90
15617;DHT22;7908;51.688;7.130;2023-06-22T05:37:02;20.90;99.90
15617;DHT22;7908;51.688;7.130;2023-06-22T05:39:31;20.90;99.90
15617;DHT22;7908;51.688;7.130;2023-06-22T05:42:07;20.80;99.90
15617;DHT22;7908;51.688;7.130;2023-06-22T05:44:37;20.80;99.90
15617;DHT22;7908;51.688;7.130;2023-06-22T05:47:08;20.80;99.90
15617;DHT22;7908;51.688;7.130;2023-06-22T05:49:41;20.70;99.90
15617;DHT22;7908;51.688;7.130;2023-06-22T05:52:13;20.80;99.90
15617;DHT22;7908;51.688;7.130;2023-06-22T05:54:42;20.80;99.90
15617;DHT22;7908;51.688;7.130;2023-06-22T05:57:13;20.70;99.90
15617;DHT22;7908;51.688;7.130;2023-06-22T05:59:42;20.70;99.90
15617;DHT22;7908;51.688;7.130;2023-06-22T06:02:11;20.60;99.90
15617;DHT22;7908;51.688;7.130;2023-06-22T06:04:41;20.60;99.90
15617;DHT22;7908;51.688;7.130;2023-06-22T06:07:10;20.60;99.90
15617;DHT22;7908;51.688;7.130;2023-06-22T06:09:40;20.60;99.90
15617;DHT22;7908;51.688;7.130;2023-06-22T06:12:09;20.60;99.90
15617;DHT22;7908;51.688;7.130;2023-06-22T06:14:41;20.60;99.90
15617;DHT22;7908;51.688;7.130;2023-06-22T06:17:10;20.60;99.90
15617;DHT22;7908;51.688;7.130;2023-06-22T06:19:39;20.70;99.90
15617;DHT22;7908;51.688;7.130;2023-06-22T06:22:07;20.70;99.90
15617;DHT22;7908;51.688;7.130;2023-06-22T06:24:39;20.80;99.90
15617;DHT22;7908;51.688;7.130;2023-06-22T06:27:08;20.80;99.90
15617;DHT22;7908;51.688;7.130;2023-06-22T06:29:37;20.80;99.90
15617;DHT22;7908;51.688;7.130;2023-06-22T06:32:08;20.80;99.90
15617;DHT22;7908;51.688;7.130;2023-06-22T06:34:37;20.80;99.90
15617;DHT22;7908;51.688;7.130;2023-06-22T06:37:07;20.80;99.90
15617;DHT22;7908;51.688;7.130;2023-06-22T06:39:36;20.80;99.90
15617;DHT22;7908;51.688;7.130;2023-06-22T06:42:05;20.80;99.90
15617;DHT22;7908;51.688;7.130;2023-06-22T06:44:37;20.80;99.90
15617;DHT22;7908;51.688;7.130;2023-06-22T06:47:07;20.90;99.90
15617;DHT22;7908;51.688;7.130;2023-06-22T06:49:42;20.90;99.90
15617;DHT22;7908;51.688;7.130;2023-06-22T06:52:12;21.00;99.90
15617;DHT22;7908;51.688;7.130;2023-06-22T06:54:41;20.90;99.90
15617;DHT22;7908;51.688;7.130;2023-06-22T06:57:10;20.90;99.90
15617;DHT22;7908;51.688;7.130;2023-06-22T06:59:40;20.90;99.90
15617;DHT22;7908;51.688;7.130;2023-06-22T07:02:12;20.80;99.90
15617;DHT22;7908;51.688;7.130;2023-06-22T07:04:42;20.80;99.90
15617;DHT22;7908;51.688;7.130;2023-06-22T07:07:11;20.70;99.90
15617;DHT22;7908;51.688;7.130;2023-06-22T07:09:40;20.70;99.90
15617;DHT22;7908;51.688;7.130;2023-06-22T07:12:10;20.80;99.90
15617;DHT22;7908;51.688;7.130;2023-06-22T07:14:39;20.80;99.90
15617;DHT22;7908;51.688;7.130;2023-06-22T07:17:09;20.80;99.90
15617;DHT22;7908;51.688;7.130;2023-06-22T07:19:40;20.80;99.90
15617;DHT22;7908;51.688;7.130;2023-06-22T07:22:10;20.80;99.90
15617;DHT22;7908;51.688;7.130;2023-06-22T07:24:40;20.80;99.90
15617;DHT22;7908;51.688;7.130;2023-06-22T07:27:10;20.80;99.90
15617;DHT22;7908;51.688;7.130;2023-06-22T07:29:40;20.90;99.90
15617;DHT22;7908;51.688;7.130;2023-06-22T07:32:10;20.90;99.90
15617;DHT22;7908;51.688;7.130;2023-06-22T07:34:42;20.90;99.90
15617;DHT22;7908;51.688;7.130;2023-06-22T07:37:12;21.00;99.90
15617;DHT22;7908;51.688;7.130;2023-06-22T07:39:44;21.00;99.90
15617;DHT22;7908;51.688;7.130;2023-06-22T07:42:15;21.00;99.90
15617;DHT22;7908;51.688;7.130;2023-06-22T07:44:46;21.10;99.90
15617;DHT22;7908;51.688;7.130;2023-06-22T07:47:16;21.10;99.90
15617;DHT22;7908;51.688;7.130;2023-06-22T07:49:50;21.10;99.90
15617;DHT22;7908;51.688;7.130;2023-06-22T07:52:19;21.10;99.90
15617;DHT22;7908;51.688;7.130;2023-06-22T07:54:48;21.20;99.90
15617;DHT22;7908;51.688;7.130;2023-06-22T07:57:17;21.20;99.90
15617;DHT22;7908;51.688;7.130;2023-06-22T07:59:47;21.20;99.90
15617;DHT22;7908;51.688;7.130;2023-06-22T08:02:17;21.20;99.90
15617;DHT22;7908;51.688;7.130;2023-06-22T08:04:46;21.20;99.90
15617;DHT22;7908;51.688;7.130;2023-06-22T08:07:17;21.20;99.90
15617;DHT22;7908;51.688;7.130;2023-06-22T08:09:49;21.30;99.90
15617;DHT22;7908;51.688;7.130;2023-06-22T08:12:18;21.40;99.90
15617;DHT22;7908;51.688;7.130;2023-06-22T08:14:48;21.60;99.90
15617;DHT22;7908;51.688;7.130;2023-06-22T08:17:18;21.80;99.90
15617;DHT22;7908;51.688;7.130;2023-06-22T08:19:47;22.00;99.90
15617;DHT22;7908;51.688;7.130;2023-06-22T08:22:21;22.30;99.90
15617;DHT22;7908;51.688;7.130;2023-06-22T08:24:52;22.40;99.90
15617;DHT22;7908;51.688;7.130;2023-06-22T08:27:24;22.50;99.90
15617;DHT22;7908;51.688;7.130;2023-06-22T08:29:56;22.70;99.90
15617;DHT22;7908;51.688;7.130;2023-06-22T08:32:27;22.80;99.90
15617;DHT22;7908;51.688;7.130;2023-06-22T08:34:57;23.00;99.90
15617;DHT22;7908;51.688;7.130;2023-06-22T08:37:28;23.10;99.90
15617;DHT22;7908;51.688;7.130;2023-06-22T08:39:59;23.40;99.90
15617;DHT22;7908;51.688;7.130;2023-06-22T08:42:40;23.40;99.90
15617;DHT22;7908;51.688;7.130;2023-06-22T08:45:13;23.30;99.90
15617;DHT22;7908;51.688;7.130;2023-06-22T08:47:46;23.30;99.90
15617;DHT22;7908;51.688;7.130;2023-06-22T08:50:16;23.30;99.90
15617;DHT22;7908;51.688;7.130;2023-06-22T08:52:51;23.40;99.90
15617;DHT22;7908;51.688;7.130;2023-06-22T08:55:25;23.80;99.90
15617;DHT22;7908;51.688;7.130;2023-06-22T08:57:58;24.20;99.90
15617;DHT22;7908;51.688;7.130;2023-06-22T09:00:28;24.50;99.90
15617;DHT22;7908;51.688;7.130;2023-06-22T09:03:03;24.60;99.90
15617;DHT22;7908;51.688;7.130;2023-06-22T09:05:34;24.50;99.90
15617;DHT22;7908;51.688;7.130;2023-06-22T09:08:06;24.60;99.90
15617;DHT22;7908;51.688;7.130;2023-06-22T09:10:35;24.70;99.90
15617;DHT22;7908;51.688;7.130;2023-06-22T09:13:05;24.80;99.90
15617;DHT22;7908;51.688;7.130;2023-06-22T09:15:34;24.90;99.90
15617;DHT22;7908;51.688;7.130;2023-06-22T09:18:16;25.00;99.90
15617;DHT22;7908;51.688;7.130;2023-06-22T09:20:46;25.00;99.90
15617;DHT22;7908;51.688;7.130;2023-06-22T09:23:19;25.20;99.90
15617;DHT22;7908;51.688;7.130;2023-06-22T09:25:49;25.40;99.90
15617;DHT22;7908;51.688;7.130;2023-06-22T09:28:21;25.40;99.90
15617;DHT22;7908;51.688;7.130;2023-06-22T09:30:52;25.40;99.90
15617;DHT22;7908;51.688;7.130;2023-06-22T09:33:27;25.40;99.90
15617;DHT22;7908;51.688;7.130;2023-06-22T09:35:58;25.40;99.90
15617;DHT22;7908;51.688;7.130;2023-06-22T09:38:31;25.50;99.90
15617;DHT22;7908;51.688;7.130;2023-06-22T09:41:04;25.50;99.90
15617;DHT22;7908;51.688;7.130;2023-06-22T09:43:36;25.70;99.90
15617;DHT22;7908;51.688;7.130;2023-06-22T09:46:07;25.80;99.90
15617;DHT22;7908;51.688;7.130;2023-06-22T09:48:39;25.80;99.90
15617;DHT22;7908;51.688;7.130;2023-06-22T09:51:15;26.00;99.90
15617;DHT22;7908;51.688;7.130;2023-06-22T09:53:52;26.00;99.90
15617;DHT22;7908;51.688;7.130;2023-06-22T09:56:23;26.00;99.90
15617;DHT22;7908;51.688;7.130;2023-06-22T09:58:56;26.00;99.90
15617;DHT22;7908;51.688;7.130;2023-06-22T10:01:42;26.00;99.90
15617;DHT22;7908;51.688;7.130;2023-06-22T10:04:11;26.00;99.90
15617;DHT22;7908;51.688;7.130;2023-06-22T10:06:41;26.00;99.90
15617;DHT22;7908;51.688;7.130;2023-06-22T10:09:13;26.00;99.90
15617;DHT22;7908;51.688;7.130;2023-06-22T10:11:42;26.00;99.90
15617;DHT22;7908;51.688;7.130;2023-06-22T10:14:12;25.90;99.90
15617;DHT22;7908;51.688;7.130;2023-06-22T10:16:43;25.80;99.90
15617;DHT22;7908;51.688;7.130;2023-06-22T10:19:15;25.60;99.90
15617;DHT22;7908;51.688;7.130;2023-06-22T10:21:49;25.60;99.90
15617;DHT22;7908;51.688;7.130;2023-06-22T10:24:23;25.50;99.90
15617;DHT22;7908;51.688;7.130;2023-06-22T10:27:01;25.50;99.90
15617;DHT22;7908;51.688;7.130;2023-06-22T10:29:32;25.50;99.90
15617;DHT22;7908;51.688;7.130;2023-06-22T10:32:03;25.50;99.90
15617;DHT22;7908;51.688;7.130;2023-06-22T10:34:38;25.60;99.90
15617;DHT22;7908;51.688;7.130;2023-06-22T10:37:18;25.70;99.90
15617;DHT22;7908;51.688;7.130;2023-06-22T10:39:49;26.00;99.90
15617;DHT22;7908;51.688;7.130;2023-06-22T10:42:22;26.10;99.90
15617;DHT22;7908;51.688;7.130;2023-06-22T10:44:52;26.30;99.90
15617;DHT22;7908;51.688;7.130;2023-06-22T10:47:25;26.50;99.90
15617;DHT22;7908;51.688;7.130;2023-06-22T10:49:55;26.40;99.90
15617;DHT22;7908;51.688;7.130;2023-06-22T10:52:25;26.30;99.90
15617;DHT22;7908;51.688;7.130;2023-06-22T10:54:58;26.50;99.90
15617;DHT22;7908;51.688;7.130;2023-06-22T10:57:35;26.60;99.90
15617;DHT22;7908;51.688;7.130;2023-06-22T11:00:09;26.70;99.90
15617;DHT22;7908;51.688;7.130;2023-06-22T11:02:39;26.90;99.90
15617;DHT22;7908;51.688;7.130;2023-06-22T11:05:16;27.10;99.90
15617;DHT22;7908;51.688;7.130;2023-06-22T11:07:48;26.90;99.90
15617;DHT22;7908;51.688;7.130;2023-06-22T11:10:23;26.90;99.90
15617;DHT22;7908;51.688;7.130;2023-06-22T11:12:58;27.20;99.90
15617;DHT22;7908;51.688;7.130;2023-06-22T11:15:39;27.30;99.90
15617;DHT22;7908;51.688;7.130;2023-06-22T11:18:14;27.20;99.90
15617;DHT22;7908;51.688;7.130;2023-06-22T11:20:44;27.00;99.90
15617;DHT22;7908;51.688;7.130;2023-06-22T11:23:22;26.80;99.90
15617;DHT22;7908;51.688;7.130;2023-06-22T11:25:56;26.60;99.90
15617;DHT22;7908;51.688;7.130;2023-06-22T11:28:27;26.60;99.90
15617;DHT22;7908;51.688;7.130;2023-06-22T11:30:56;26.50;99.90
15617;DHT22;7908;51.688;7.130;2023-06-22T11:33:37;26.40;99.90
15617;DHT22;7908;51.688;7.130;2023-06-22T11:36:07;26.40;99.90
15617;DHT22;7908;51.688;7.130;2023-06-22T11:38:43;26.40;99.90
15617;DHT22;7908;51.688;7.130;2023-06-22T11:41:18;26.30;99.90
15617;DHT22;7908;51.688;7.130;2023-06-22T11:44:09;26.20;99.90
15617;DHT22;7908;51.688;7.130;2023-06-22T11:46:39;26.10;99.90
15617;DHT22;7908;51.688;7.130;2023-06-22T11:49:10;26.10;99.90
15617;DHT22;7908;51.688;7.130;2023-06-22T11:51:43;26.00;99.90
15617;DHT22;7908;51.688;7.130;2023-06-22T11:54:19;25.80;99.90
15617;DHT22;7908;51.688;7.130;2023-06-22T11:56:55;25.60;99.90
15617;DHT22;7908;51.688;7.130;2023-06-22T11:59:26;25.50;99.90
15617;DHT22;7908;51.688;7.130;2023-06-22T12:01:56;25.30;99.90
15617;DHT22;7908;51.688;7.130;2023-06-22T12:04:37;25.20;99.90
15617;DHT22;7908;51.688;7.130;2023-06-22T12:07:09;25.10;99.90
15617;DHT22;7908;51.688;7.130;2023-06-22T12:09:40;25.00;99.90
15617;DHT22;7908;51.688;7.130;2023-06-22T12:12:21;24.80;99.90
15617;DHT22;7908;51.688;7.130;2023-06-22T12:14:52;24.50;99.90
15617;DHT22;7908;51.688;7.130;2023-06-22T12:17:28;23.90;99.90
15617;DHT22;7908;51.688;7.130;2023-06-22T12:19:59;23.30;99.90
15617;DHT22;7908;51.688;7.130;2023-06-22T12:22:36;22.90;99.90
15617;DHT22;7908;51.688;7.130;2023-06-22T12:25:07;22.70;99.90
15617;DHT22;7908;51.688;7.130;2023-06-22T12:27:43;22.40;99.90
15617;DHT22;7908;51.688;7.130;2023-06-22T12:30:13;22.10;99.90
15617;DHT22;7908;51.688;7.130;2023-06-22T12:32:42;21.80;99.90
15617;DHT22;7908;51.688;7.130;2023-06-22T12:35:11;21.70;99.90
15617;DHT22;7908;51.688;7.130;2023-06-22T12:37:42;21.60;99.90
15617;DHT22;7908;51.688;7.130;2023-06-22T12:40:14;21.70;99.90
15617;DHT22;7908;51.688;7.130;2023-06-22T12:42:47;21.60;99.90
15617;DHT22;7908;51.688;7.130;2023-06-22T12:45:17;21.60;99.90
15617;DHT22;7908;51.688;7.130;2023-06-22T12:47:49;21.60;99.90
15617;DHT22;7908;51.688;7.130;2023-06-22T12:50:20;21.50;99.90
15617;DHT22;7908;51.688;7.130;2023-06-22T12:52:50;21.50;99.90
15617;DHT22;7908;51.688;7.130;2023-06-22T12:55:20;21.40;99.90
15617;DHT22;7908;51.688;7.130;2023-06-22T12:57:51;21.40;99.90
15617;DHT22;7908;51.688;7.130;2023-06-22T13:00:21;21.30;99.90
15617;DHT22;7908;51.688;7.130;2023-06-22T13:02:53;21.40;99.90
15617;DHT22;7908;51.688;7.130;2023-06-22T13:05:24;21.50;99.90
15617;DHT22;7908;51.688;7.130;2023-06-22T13:08:01;21.60;99.90
15617;DHT22;7908;51.688;7.130;2023-06-22T13:10:41;21.70;99.90
15617;DHT22;7908;51.688;7.130;2023-06-22T13:13:18;22.00;99.90
15617;DHT22;7908;51.688;7.130;2023-06-22T13:15:47;22.20;99.90
15617;DHT22;7908;51.688;7.130;2023-06-22T13:18:17;22.20;99.90
15617;DHT22;7908;51.688;7.130;2023-06-22T13:20:47;22.30;99.90
15617;DHT22;7908;51.688;7.130;2023-06-22T13:23:20;22.40;99.90
15617;DHT22;7908;51.688;7.130;2023-06-22T13:25:51;22.40;99.90
15617;DHT22;7908;51.688;7.130;2023-06-22T13:28:24;22.40;99.90
15617;DHT22;7908;51.688;7.130;2023-06-22T13:30:57;22.40;99.90
15617;DHT22;7908;51.688;7.130;2023-06-22T13:33:30;22.40;99.90
15617;DHT22;7908;51.688;7.130;2023-06-22T13:36:04;22.50;99.90
15617;DHT22;7908;51.688;7.130;2023-06-22T13:52:12;22.10;99.90
15617;DHT22;7908;51.688;7.130;2023-06-22T13:54:48;21.90;99.90
15617;DHT22;7908;51.688;7.130;2023-06-22T13:57:18;21.80;99.90
15617;DHT22;7908;51.688;7.130;2023-06-22T13:59:53;21.70;99.90
15617;DHT22;7908;51.688;7.130;2023-06-22T14:02:22;21.60;99.90
15617;DHT22;7908;51.688;7.130;2023-06-22T14:04:54;21.70;99.90
15617;DHT22;7908;51.688;7.130;2023-06-22T14:07:31;21.60;99.90
15617;DHT22;7908;51.688;7.130;2023-06-22T14:10:03;21.60;99.90
15617;DHT22;7908;51.688;7.130;2023-06-22T14:12:34;21.60;99.90
15617;DHT22;7908;51.688;7.130;2023-06-22T14:15:05;21.70;99.90
15617;DHT22;7908;51.688;7.130;2023-06-22T14:17:35;21.70;99.90
15617;DHT22;7908;51.688;7.130;2023-06-22T14:20:06;21.80;99.90
15617;DHT22;7908;51.688;7.130;2023-06-22T14:22:38;21.90;99.90
15617;DHT22;7908;51.688;7.130;2023-06-22T14:25:09;21.90;99.90
15617;DHT22;7908;51.688;7.130;2023-06-22T14:27:39;21.90;99.90
15617;DHT22;7908;51.688;7.130;2023-06-22T14:30:09;22.00;99.90
15617;DHT22;7908;51.688;7.130;2023-06-22T14:32:43;22.00;99.90
15617;DHT22;7908;51.688;7.130;2023-06-22T14:35:13;22.10;99.90
15617;DHT22;7908;51.688;7.130;2023-06-22T14:37:44;22.10;99.90
15617;DHT22;7908;51.688;7.130;2023-06-22T14:40:17;22.20;99.90
15617;DHT22;7908;51.688;7.130;2023-06-22T14:42:49;22.40;99.90
15617;DHT22;7908;51.688;7.130;2023-06-22T14:45:19;22.30;99.90
15617;DHT22;7908;51.688;7.130;2023-06-22T14:47:52;22.30;99.90
15617;DHT22;7908;51.688;7.130;2023-06-22T14:50:24;22.20;99.90
15617;DHT22;7908;51.688;7.130;2023-06-22T14:52:56;22.10;99.90
15617;DHT22;7908;51.688;7.130;2023-06-22T14:55:25;22.10;99.90
15617;DHT22;7908;51.688;7.130;2023-06-22T14:57:56;22.10;99.90
15617;DHT22;7908;51.688;7.130;2023-06-22T15:00:34;22.20;99.90
15617;DHT22;7908;51.688;7.130;2023-06-22T15:03:04;22.30;99.90
15617;DHT22;7908;51.688;7.130;2023-06-22T15:05:35;22.20;99.90
15617;DHT22;7908;51.688;7.130;2023-06-22T15:08:09;22.10;99.90
15617;DHT22;7908;51.688;7.130;2023-06-22T15:10:38;22.10;99.90
15617;DHT22;7908;51.688;7.130;2023-06-22T15:13:07;22.20;99.90
15617;DHT22;7908;51.688;7.130;2023-06-22T15:15:37;22.40;99.90
15617;DHT22;7908;51.688;7.130;2023-06-22T15:18:11;22.40;99.90
15617;DHT22;7908;51.688;7.130;2023-06-22T15:20:44;22.30;99.90
15617;DHT22;7908;51.688;7.130;2023-06-22T15:23:19;22.20;99.90
15617;DHT22;7908;51.688;7.130;2023-06-22T15:25:49;22.10;99.90
15617;DHT22;7908;51.688;7.130;2023-06-22T15:28:22;22.10;99.90
15617;DHT22;7908;51.688;7.130;2023-06-22T15:30:54;22.10;99.90
15617;DHT22;7908;51.688;7.130;2023-06-22T15:33:27;22.10;99.90
15617;DHT22;7908;51.688;7.130;2023-06-22T15:36:01;22.10;99.90
15617;DHT22;7908;51.688;7.130;2023-06-22T15:38:44;22.10;99.90
15617;DHT22;7908;51.688;7.130;2023-06-22T15:41:14;22.00;99.90
15617;DHT22;7908;51.688;7.130;2023-06-22T15:43:45;21.90;99.90
15617;DHT22;7908;51.688;7.130;2023-06-22T15:46:16;21.80;99.90
15617;DHT22;7908;51.688;7.130;2023-06-22T15:48:46;21.80;99.90
15617;DHT22;7908;51.688;7.130;2023-06-22T15:51:18;21.80;99.90
15617;DHT22;7908;51.688;7.130;2023-06-22T15:53:52;21.80;99.90
15617;DHT22;7908;51.688;7.130;2023-06-22T15:56:26;21.70;99.90
15617;DHT22;7908;51.688;7.130;2023-06-22T15:58:56;21.70;99.90
15617;DHT22;7908;51.688;7.130;2023-06-22T16:01:25;21.70;99.90
15617;DHT22;7908;51.688;7.130;2023-06-22T16:03:55;21.70;99.90
15617;DHT22;7908;51.688;7.130;2023-06-22T16:06:40;21.70;99.90
15617;DHT22;7908;51.688;7.130;2023-06-22T16:09:12;21.60;99.90
15617;DHT22;7908;51.688;7.130;2023-06-22T16:11:43;21.60;99.90
15617;DHT22;7908;51.688;7.130;2023-06-22T16:14:14;21.50;99.90
15617;DHT22;7908;51.688;7.130;2023-06-22T16:16:43;21.50;99.90
15617;DHT22;7908;51.688;7.130;2023-06-22T16:19:13;21.40;99.90
15617;DHT22;7908;51.688;7.130;2023-06-22T16:21:44;21.40;99.90
15617;DHT22;7908;51.688;7.130;2023-06-22T16:24:17;21.30;99.90
15617;DHT22;7908;51.688;7.130;2023-06-22T16:26:47;21.10;99.90
15617;DHT22;7908;51.688;7.130;2023-06-22T16:29:18;20.90;99.90